Sweet Home, OR (97386)

11:08 PM PDT on August 31, 2015 (GMT -0700)
Near Clarkmill and Hwy 20 | | Change Station
CLOSE
Current Station
Personal Weather Station
Location: Sweet Home, OR
Elevation: 610 ft
Nearby Weather Stations

Elev 610 ft 44.40 °N, 122.70 °W | Updated 2 minutes ago

Overcast
Overcast
64.6 °F
Feels Like 64.6 °F
N
0.0
Wind Variable Wind from NNW

Today
High -- | Low -- °F
--% Chance of Precip.
Yesterday
High -- | Low -- °F
Precip. -- in
6:32 AM 7:49 PM
Waning Gibbous, 91% visible
Pressure 30.01 in
Visibility 10.0 miles
Clouds Overcast 4500 ft
Dew Point 54 °F
Humidity 68%
Rainfall 0.00 in
Snow Depth Not available.
UV 0 out of 12
Pollen 3.10 out of 12
Air Quality Not available.
Flu Activity Not available.
METAR KCVO 010555Z 00000KT 10SM OVC045 16/11 A3001 RMK AO1 10220 20160 52007
Pressure 30.01 in
Visibility 10.0 miles
Clouds Overcast 4500 ft
Dew Point 54 °F
Humidity 68%
Rainfall 0.00 in
Snow Depth Not available.
UV 0 out of 12
Pollen 3.10 out of 12
Air Quality Not available.
Flu Activity Not available.
METAR KCVO 010555Z 00000KT 10SM OVC045 16/11 A3001 RMK AO1 10220 20160 52007

10-Day Weather Forecast

×

Almanac

Astronomy

Aug. 31, 2015 Rise Set
Actual Time
Civil Twilight
Nautical Twilight
Astronomical Twilight
Moon
Length of Visible Light
Length of Day
Tomorrow will be .
, % of the Moon is Illuminated

Today's Extremes

State Highs State Lows

Community

WunderPhotos

Upload Photos

1,851,484 photos uploaded!

WunderBlogs® & News

Nearby

Air Quality

  Air Quality AQ Index Pollutant
Not available.

Snow Depth

Station Depth Elevation

Earthquake Activity

City Distance Mag. Time & Date
Minimum magnitude displayed is 2.5.

Coastal Water Temperatures

Place Temperature

Stations

Nearby Weather Stations

Station Location Temp. Windchill Dew Point Humidity Wind Precip. Elev Updated Type